Thunder radar more information blitzortung!


avis per Snow/Ice more information rain snow radar


Visita la nostra xarxa de llocs de meteo:

Template documentation
and downloads

And another site



Snow/Ice From: 26-02-2018 12:00 Until: 27-02-2018 05:59 warning for: Snow/Ice Level: Yellow info button

Pagina Historial Weather Underground text

Diari Resum January 16, 2018 Unitats:  Imperial    Mètric   Tant
« Previous Dia
SegĂźent Dia »
Diari Setmana Mensual Anual Personalitzada
  Maxima: Minima: Media:
Temperatura: TemperatureC °F 6.7 °F 11.5 °F
Punt de rosada: DewpointC °F -0.5 °F 3.9 °F
Humitat: Humidity % 54 % 59 %
Wind Speed: WindSpeedKMH mph 0.0 mph 7.3 mph
RĂ fegues de vent: WindSpeedGustKMH mph - -
Vent:- - West
Pression baro: PressurehPa in 1014.8 in -
Precipitacions: 0.0 in    
Historical Graphs
 
 
Dades de taula per January 16, 2018
Temps Temperatura Punt de rosada Pression baro Vent Wind Speed RĂ fegues de vent Humitat Rainfall Rate (Hourly)
TemperatureC °F DewpointC °F PressurehPa in Calm     Humidity % HourlyPrecipMM in
00:05 6.8 °F -0.2 °F 1019.9 in WSW 4.8 mph 9.7 mph 61 % 0.0 in
00:07 7.2 °F 1.1 °F 1023.9 in West 5.6 mph 5.6 mph 65 % 0.0 in
00:15 6.7 °F -0.3 °F 1019.9 in WSW 4.8 mph 8.0 mph 61 % 0.0 in
00:25 6.8 °F -0.2 °F 1019.9 in WSW 8.0 mph 9.7 mph 61 % 0.0 in
00:35 6.8 °F -0.2 °F 1019.9 in WSW 1.6 mph 4.8 mph 61 % 0.0 in
00:45 6.9 °F -0.1 °F 1019.9 in WSW 4.8 mph 6.4 mph 61 % 0.0 in
00:55 7.0 °F -0.2 °F 1019.9 in WSW 4.8 mph 8.0 mph 60 % 0.0 in
01:05 7.1 °F -0.2 °F 1019.9 in WSW 4.8 mph 8.0 mph 60 % 0.0 in
01:15 7.1 °F -0.2 °F 1019.9 in WSW 3.2 mph 6.4 mph 60 % 0.0 in
01:25 7.3 °F 0.1 °F 1019.9 in West 4.8 mph 6.4 mph 60 % 0.0 in
01:32 7.1 °F 0.7 °F 1021.9 in WSW 3.7 mph 3.7 mph 64 % 0.0 in
01:35 7.4 °F 0.1 °F 1019.9 in West 4.8 mph 6.4 mph 60 % 0.0 in
01:45 7.3 °F -0.2 °F 1019.9 in West 1.6 mph 4.8 mph 59 % 0.0 in
01:55 7.0 °F -0.5 °F 1019.9 in Calm     59 % 0.0 in
02:05 6.8 °F -0.4 °F 1020.9 in SW 1.6 mph 3.2 mph 60 % 0.0 in
02:15 6.8 °F -0.4 °F 1020.9 in WSW 1.6 mph 6.4 mph 60 % 0.0 in
02:25 7.1 °F -0.2 °F 1020.9 in West 3.2 mph 8.0 mph 60 % 0.0 in
02:35 7.2 °F -0.1 °F 1020.9 in West 4.8 mph 6.4 mph 60 % 0.0 in
02:45 7.4 °F 0.1 °F 1020.9 in WSW 3.2 mph 6.4 mph 60 % 0.0 in
03:05 8.1 °F 0.8 °F 1020.9 in WSW 4.8 mph 4.8 mph 60 % 0.0 in
03:15 8.5 °F 1.2 °F 1020.9 in West 1.6 mph 3.2 mph 60 % 0.0 in
03:25 8.6 °F 1.3 °F 1021.9 in West 3.2 mph 6.4 mph 60 % 0.0 in
03:35 9.0 °F 1.4 °F 1021.9 in West 1.6 mph 6.4 mph 59 % 0.0 in
03:45 9.1 °F 1.5 °F 1021.9 in West 4.8 mph 9.7 mph 59 % 0.0 in
03:55 9.4 °F 1.8 °F 1021.9 in WNW 3.2 mph 6.4 mph 59 % 0.0 in
04:05 9.7 °F 2.1 °F 1020.9 in NW 3.2 mph 4.8 mph 59 % 0.0 in
04:15 10.0 °F 2.1 °F 1020.9 in West 8.0 mph 8.0 mph 58 % 0.0 in
04:25 10.3 °F 2.4 °F 1020.9 in WSW 1.6 mph 12.9 mph 58 % 0.0 in
04:35 10.7 °F 2.8 °F 1020.9 in West 4.8 mph 9.7 mph 58 % 0.0 in
10:36 10.8 °F 2.8 °F 1021.9 in NW 9.3 mph 9.3 mph 58 % 0.0 in
10:42 11.0 °F 3.1 °F 1021.9 in West 7.4 mph 7.4 mph 58 % 0.0 in
10:58 10.4 °F 2.0 °F 1021.9 in SW 7.4 mph 7.4 mph 56 % 0.0 in
11:14 11.5 °F 3.3 °F 1021.9 in NW 13.0 mph 13.0 mph 57 % 0.0 in
12:02 12.8 °F 4.0 °F 1021.9 in WNW 7.2 mph 7.2 mph 55 % 0.0 in
12:15 13.3 °F 4.4 °F 1021.9 in SSW 9.3 mph 9.3 mph 55 % 0.0 in
12:22 13.5 °F 4.6 °F 1021.9 in NW 5.6 mph 5.6 mph 55 % 0.0 in
12:52 14.0 °F 4.8 °F 1019.9 in WSW 14.8 mph 14.8 mph 54 % 0.0 in
13:14 14.9 °F 5.9 °F 1019.9 in WSW 5.6 mph 5.6 mph 55 % 0.0 in
13:20 15.0 °F 6.0 °F 1019.9 in WSW 7.4 mph 7.4 mph 55 % 0.0 in
13:41 15.1 °F 5.8 °F 1019.9 in West 5.6 mph 5.6 mph 54 % 0.0 in
14:19 15.3 °F 6.1 °F 1019.9 in West 9.3 mph 9.3 mph 54 % 0.0 in
14:26 15.4 °F 6.1 °F 1019.9 in WSW 7.4 mph 7.4 mph 54 % 0.0 in
14:46 15.5 °F 6.2 °F 1019.9 in NNW 9.3 mph 9.3 mph 54 % 0.0 in
14:54 15.6 °F 6.3 °F 1018.8 in NW 7.4 mph 7.4 mph 54 % 0.0 in
15:00 15.4 °F 6.1 °F 1018.8 in NW 8.7 mph 8.7 mph 54 % 0.0 in
15:08 15.6 °F 6.3 °F 1018.8 in WNW 9.3 mph 9.3 mph 54 % 0.0 in
15:44 16.4 °F 7.1 °F 1018.8 in WSW 1.9 mph 1.9 mph 54 % 0.0 in
16:04 16.5 °F 7.2 °F 1018.8 in WNW 9.3 mph 9.3 mph 54 % 0.0 in
16:18 16.2 °F 6.9 °F 1018.8 in WNW 6.1 mph 6.1 mph 54 % 0.0 in
16:34 16.1 °F 6.8 °F 1018.8 in West 5.6 mph 5.6 mph 54 % 0.0 in
17:14 15.5 °F 6.5 °F 1018.8 in North 3.7 mph 3.7 mph 55 % 0.0 in
17:28 15.1 °F 6.1 °F 1018.8 in WSW 5.6 mph 5.6 mph 55 % 0.0 in
17:46 14.4 °F 5.4 °F 1018.8 in Calm     55 % 0.0 in
17:53 14.1 °F 5.4 °F 1018.8 in NW 3.7 mph 3.7 mph 56 % 0.0 in
18:06 14.1 °F 5.4 °F 1018.8 in SW 7.4 mph 7.4 mph 56 % 0.0 in
18:12 14.2 °F 5.8 °F 1018.8 in WNW 7.4 mph 7.4 mph 57 % 0.0 in
18:29 14.0 °F 5.6 °F 1018.8 in WSW 7.4 mph 7.4 mph 57 % 0.0 in
19:06 13.8 °F 5.7 °F 1018.8 in WSW 9.3 mph 9.3 mph 58 % 0.0 in
19:35 12.3 °F 5.4 °F 1015.8 in WSW 9.7 mph 12.9 mph 63 % 0.0 in
19:45 12.2 °F 5.6 °F 1015.8 in West 8.0 mph 20.9 mph 64 % 0.0 in
19:53 13.8 °F 5.9 °F 1018.8 in WSW 7.4 mph 7.4 mph 59 % 0.0 in
20:05 12.3 °F 5.7 °F 1015.8 in West 11.3 mph 17.7 mph 64 % 0.0 in
20:15 13.7 °F 5.8 °F 1017.8 in WSW 9.3 mph 9.3 mph 59 % 0.0 in
20:25 12.3 °F 5.7 °F 1014.8 in West 14.5 mph 24.1 mph 64 % 0.0 in
20:35 12.4 °F 5.8 °F 1015.8 in West 11.3 mph 22.5 mph 64 % 0.0 in
20:45 12.4 °F 5.8 °F 1015.8 in West 9.7 mph 17.7 mph 64 % 0.0 in
20:47 13.5 °F 5.6 °F 1017.8 in WNW 9.3 mph 9.3 mph 59 % 0.0 in
20:55 12.4 °F 5.8 °F 1014.8 in WSW 14.5 mph 20.9 mph 64 % 0.0 in
20:58 13.3 °F 5.4 °F 1017.8 in West 7.4 mph 7.4 mph 59 % 0.0 in
21:05 12.4 °F 5.8 °F 1014.8 in WSW 14.5 mph 14.5 mph 64 % 0.0 in
21:15 12.3 °F 5.7 °F 1014.8 in WSW 9.7 mph 9.7 mph 64 % 0.0 in
21:17 13.3 °F 5.4 °F 1017.8 in NW 9.3 mph 9.3 mph 59 % 0.0 in
21:25 13.2 °F 5.3 °F 1017.8 in WSW 7.4 mph 7.4 mph 59 % 0.0 in
21:35 12.4 °F 5.8 °F 1015.8 in West 9.7 mph 16.1 mph 64 % 0.0 in
21:45 12.4 °F 5.6 °F 1015.8 in West 9.7 mph 27.4 mph 63 % 0.0 in
21:59 12.9 °F 5.3 °F 1017.8 in WSW 9.3 mph 9.3 mph 60 % 0.0 in
22:05 12.6 °F 5.7 °F 1014.8 in West 11.3 mph 19.3 mph 63 % 0.0 in
22:07 12.7 °F 5.1 °F 1018.8 in SW 7.4 mph 7.4 mph 60 % 0.0 in
22:15 12.5 °F 5.7 °F 1014.8 in WSW 11.3 mph 25.7 mph 63 % 0.0 in
22:17 12.7 °F 5.1 °F 1018.8 in WSW 11.1 mph 11.1 mph 60 % 0.0 in
22:25 12.4 °F 5.3 °F 1014.8 in WSW 12.9 mph 20.9 mph 62 % 0.0 in
22:35 12.5 °F 5.4 °F 1014.8 in West 9.7 mph 16.1 mph 62 % 0.0 in
22:45 12.5 °F 5.4 °F 1014.8 in West 14.5 mph 24.1 mph 62 % 0.0 in
22:56 12.7 °F 5.4 °F 1017.8 in West 20.6 mph 20.6 mph 61 % 0.0 in
23:00 12.3 °F 5.2 °F 1014.8 in WSW 9.7 mph 16.1 mph 62 % 0.0 in
23:10 12.3 °F 5.2 °F 1015.8 in WSW 9.7 mph 19.3 mph 62 % 0.0 in
23:20 12.3 °F 5.2 °F 1015.8 in WSW 14.5 mph 14.5 mph 62 % 0.0 in
23:30 12.2 °F 5.1 °F 1015.8 in WSW 4.8 mph 14.5 mph 62 % 0.0 in
23:40 12.2 °F 5.1 °F 1015.8 in West 9.7 mph 20.9 mph 62 % 0.0 in
23:41 12.3 °F 5.0 °F 1016.8 in WSW 14.8 mph 14.8 mph 61 % 0.0 in
23:50 12.2 °F 5.1 °F 1015.8 in West 4.8 mph 17.7 mph 62 % 0.0 in
Meteo Sesrovires
Elogis d' Weather Underground - 3 mb

Guio original per  Jim McMurry - jmcmurry@mwt.net Adaptat per a la plantilla per  Wim van der Kuil - Leuven-Template.eu

Trobareu la nostra informacio del temps tambe a:

Weather Underground

AWEKAS